sensor_id;sensor_type;location;lat;lon;timestamp;temperature;humidity
36594;DHT22;22603;47.900;8.146;2022-07-17T00:01:01;12.10;99.90
36594;DHT22;22603;47.900;8.146;2022-07-17T00:03:48;12.20;99.90
36594;DHT22;22603;47.900;8.146;2022-07-17T00:06:37;12.10;99.90
36594;DHT22;22603;47.900;8.146;2022-07-17T00:09:24;12.00;99.90
36594;DHT22;22603;47.900;8.146;2022-07-17T00:12:11;11.90;99.90
36594;DHT22;22603;47.900;8.146;2022-07-17T00:14:58;11.80;99.90
36594;DHT22;22603;47.900;8.146;2022-07-17T00:17:45;11.80;99.90
36594;DHT22;22603;47.900;8.146;2022-07-17T00:20:33;11.70;99.90
36594;DHT22;22603;47.900;8.146;2022-07-17T00:23:22;11.70;99.90
36594;DHT22;22603;47.900;8.146;2022-07-17T00:26:10;11.70;99.90
36594;DHT22;22603;47.900;8.146;2022-07-17T00:28:57;11.70;99.90
36594;DHT22;22603;47.900;8.146;2022-07-17T00:31:45;11.70;99.90
36594;DHT22;22603;47.900;8.146;2022-07-17T00:34:32;11.70;99.90
36594;DHT22;22603;47.900;8.146;2022-07-17T00:37:20;11.60;99.90
36594;DHT22;22603;47.900;8.146;2022-07-17T00:40:11;11.60;99.90
36594;DHT22;22603;47.900;8.146;2022-07-17T00:42:59;11.50;99.90
36594;DHT22;22603;47.900;8.146;2022-07-17T00:45:53;11.40;99.90
36594;DHT22;22603;47.900;8.146;2022-07-17T00:48:41;11.40;99.90
36594;DHT22;22603;47.900;8.146;2022-07-17T00:51:28;11.40;99.90
36594;DHT22;22603;47.900;8.146;2022-07-17T00:54:17;11.40;99.90
36594;DHT22;22603;47.900;8.146;2022-07-17T00:57:07;11.30;99.90
36594;DHT22;22603;47.900;8.146;2022-07-17T00:59:56;11.30;99.90
36594;DHT22;22603;47.900;8.146;2022-07-17T01:02:45;11.20;99.90
36594;DHT22;22603;47.900;8.146;2022-07-17T01:05:33;11.10;99.90
36594;DHT22;22603;47.900;8.146;2022-07-17T01:08:21;11.10;99.90
36594;DHT22;22603;47.900;8.146;2022-07-17T01:11:08;11.00;99.90
36594;DHT22;22603;47.900;8.146;2022-07-17T01:13:57;11.00;99.90
36594;DHT22;22603;47.900;8.146;2022-07-17T01:16:44;10.90;99.90
36594;DHT22;22603;47.900;8.146;2022-07-17T01:19:32;10.90;99.90
36594;DHT22;22603;47.900;8.146;2022-07-17T01:22:21;10.80;99.90
36594;DHT22;22603;47.900;8.146;2022-07-17T01:25:09;10.80;99.90
36594;DHT22;22603;47.900;8.146;2022-07-17T01:27:56;10.80;99.90
36594;DHT22;22603;47.900;8.146;2022-07-17T01:30:48;10.80;99.90
36594;DHT22;22603;47.900;8.146;2022-07-17T01:33:37;10.70;99.90
36594;DHT22;22603;47.900;8.146;2022-07-17T01:36:24;10.70;99.90
36594;DHT22;22603;47.900;8.146;2022-07-17T01:39:13;10.60;99.90
36594;DHT22;22603;47.900;8.146;2022-07-17T01:42:02;10.60;99.90
36594;DHT22;22603;47.900;8.146;2022-07-17T01:44:50;10.50;99.90
36594;DHT22;22603;47.900;8.146;2022-07-17T01:47:37;10.50;99.90
36594;DHT22;22603;47.900;8.146;2022-07-17T01:50:25;10.50;99.90
36594;DHT22;22603;47.900;8.146;2022-07-17T01:53:12;10.50;99.90
36594;DHT22;22603;47.900;8.146;2022-07-17T01:56:00;10.50;99.90
36594;DHT22;22603;47.900;8.146;2022-07-17T01:58:47;10.40;99.90
36594;DHT22;22603;47.900;8.146;2022-07-17T02:01:34;10.40;99.90
36594;DHT22;22603;47.900;8.146;2022-07-17T02:04:21;10.40;99.90
36594;DHT22;22603;47.900;8.146;2022-07-17T02:07:09;10.30;99.90
36594;DHT22;22603;47.900;8.146;2022-07-17T02:09:57;10.30;99.90
36594;DHT22;22603;47.900;8.146;2022-07-17T02:12:45;10.20;99.90
36594;DHT22;22603;47.900;8.146;2022-07-17T02:15:32;10.20;99.90
36594;DHT22;22603;47.900;8.146;2022-07-17T02:18:19;10.10;99.90
36594;DHT22;22603;47.900;8.146;2022-07-17T02:21:06;10.10;99.90
36594;DHT22;22603;47.900;8.146;2022-07-17T02:23:53;10.10;99.90
36594;DHT22;22603;47.900;8.146;2022-07-17T02:26:40;10.10;99.90
36594;DHT22;22603;47.900;8.146;2022-07-17T02:29:29;10.10;99.90
36594;DHT22;22603;47.900;8.146;2022-07-17T02:32:16;10.00;99.90
36594;DHT22;22603;47.900;8.146;2022-07-17T02:35:04;10.00;99.90
36594;DHT22;22603;47.900;8.146;2022-07-17T02:37:52;9.90;99.90
36594;DHT22;22603;47.900;8.146;2022-07-17T02:40:39;9.80;99.90
36594;DHT22;22603;47.900;8.146;2022-07-17T02:43:27;9.90;99.90
36594;DHT22;22603;47.900;8.146;2022-07-17T02:46:15;9.80;99.90
36594;DHT22;22603;47.900;8.146;2022-07-17T02:49:03;9.80;99.90
36594;DHT22;22603;47.900;8.146;2022-07-17T02:51:49;9.80;99.90
36594;DHT22;22603;47.900;8.146;2022-07-17T02:54:36;9.80;99.90
36594;DHT22;22603;47.900;8.146;2022-07-17T02:57:23;9.70;99.90
36594;DHT22;22603;47.900;8.146;2022-07-17T03:00:12;9.70;99.90
36594;DHT22;22603;47.900;8.146;2022-07-17T03:03:02;9.70;99.90
36594;DHT22;22603;47.900;8.146;2022-07-17T03:05:49;9.60;99.90
36594;DHT22;22603;47.900;8.146;2022-07-17T03:08:36;9.70;99.90
36594;DHT22;22603;47.900;8.146;2022-07-17T03:11:23;9.60;99.90
36594;DHT22;22603;47.900;8.146;2022-07-17T03:14:10;9.50;99.90
36594;DHT22;22603;47.900;8.146;2022-07-17T03:16:58;9.50;99.90
36594;DHT22;22603;47.900;8.146;2022-07-17T03:19:46;9.50;99.90
36594;DHT22;22603;47.900;8.146;2022-07-17T03:22:33;9.50;99.90
36594;DHT22;22603;47.900;8.146;2022-07-17T03:25:20;9.50;99.90
36594;DHT22;22603;47.900;8.146;2022-07-17T03:28:08;9.40;99.90
36594;DHT22;22603;47.900;8.146;2022-07-17T03:30:55;9.40;99.90
36594;DHT22;22603;47.900;8.146;2022-07-17T03:33:42;9.40;99.90
36594;DHT22;22603;47.900;8.146;2022-07-17T03:36:30;9.40;99.90
36594;DHT22;22603;47.900;8.146;2022-07-17T03:39:17;9.40;99.90
36594;DHT22;22603;47.900;8.146;2022-07-17T03:42:05;9.40;99.90
36594;DHT22;22603;47.900;8.146;2022-07-17T03:44:52;9.40;99.90
36594;DHT22;22603;47.900;8.146;2022-07-17T03:47:39;9.40;99.90
36594;DHT22;22603;47.900;8.146;2022-07-17T03:50:26;9.30;99.90
36594;DHT22;22603;47.900;8.146;2022-07-17T03:53:14;9.20;99.90
36594;DHT22;22603;47.900;8.146;2022-07-17T03:56:01;9.30;99.90
36594;DHT22;22603;47.900;8.146;2022-07-17T03:58:49;9.20;99.90
36594;DHT22;22603;47.900;8.146;2022-07-17T04:01:36;9.20;99.90
36594;DHT22;22603;47.900;8.146;2022-07-17T04:04:23;9.20;99.90
36594;DHT22;22603;47.900;8.146;2022-07-17T04:07:10;9.20;99.90
36594;DHT22;22603;47.900;8.146;2022-07-17T04:10:14;9.20;99.90
36594;DHT22;22603;47.900;8.146;2022-07-17T04:13:01;9.10;99.90
36594;DHT22;22603;47.900;8.146;2022-07-17T04:15:49;9.10;99.90
36594;DHT22;22603;47.900;8.146;2022-07-17T04:18:38;9.20;99.90
36594;DHT22;22603;47.900;8.146;2022-07-17T04:21:25;9.20;99.90
36594;DHT22;22603;47.900;8.146;2022-07-17T04:24:12;9.30;99.90
36594;DHT22;22603;47.900;8.146;2022-07-17T04:27:01;9.30;99.90
36594;DHT22;22603;47.900;8.146;2022-07-17T04:29:48;9.40;99.90
36594;DHT22;22603;47.900;8.146;2022-07-17T04:32:35;9.60;99.90
36594;DHT22;22603;47.900;8.146;2022-07-17T04:35:22;9.50;99.90
36594;DHT22;22603;47.900;8.146;2022-07-17T04:38:10;9.60;99.90
36594;DHT22;22603;47.900;8.146;2022-07-17T04:40:57;9.60;99.90
36594;DHT22;22603;47.900;8.146;2022-07-17T04:43:46;9.60;99.90
36594;DHT22;22603;47.900;8.146;2022-07-17T04:46:33;9.70;99.90
36594;DHT22;22603;47.900;8.146;2022-07-17T04:49:20;9.70;99.90
36594;DHT22;22603;47.900;8.146;2022-07-17T04:52:07;9.80;99.90
36594;DHT22;22603;47.900;8.146;2022-07-17T04:54:54;9.90;99.90
36594;DHT22;22603;47.900;8.146;2022-07-17T04:57:41;10.00;99.90
36594;DHT22;22603;47.900;8.146;2022-07-17T05:00:30;10.00;99.90
36594;DHT22;22603;47.900;8.146;2022-07-17T05:03:17;10.20;99.90
36594;DHT22;22603;47.900;8.146;2022-07-17T05:06:04;10.30;99.90
36594;DHT22;22603;47.900;8.146;2022-07-17T05:08:51;10.40;99.90
36594;DHT22;22603;47.900;8.146;2022-07-17T05:11:39;10.60;99.90
36594;DHT22;22603;47.900;8.146;2022-07-17T05:14:26;10.60;99.90
36594;DHT22;22603;47.900;8.146;2022-07-17T05:17:14;10.70;99.90
36594;DHT22;22603;47.900;8.146;2022-07-17T05:20:02;10.90;99.90
36594;DHT22;22603;47.900;8.146;2022-07-17T05:22:49;11.00;99.90
36594;DHT22;22603;47.900;8.146;2022-07-17T05:25:37;11.10;99.90
36594;DHT22;22603;47.900;8.146;2022-07-17T05:28:24;11.30;99.90
36594;DHT22;22603;47.900;8.146;2022-07-17T05:31:12;11.40;99.90
36594;DHT22;22603;47.900;8.146;2022-07-17T05:34:00;11.50;99.90
36594;DHT22;22603;47.900;8.146;2022-07-17T05:36:47;11.80;99.90
36594;DHT22;22603;47.900;8.146;2022-07-17T05:39:41;12.00;99.90
36594;DHT22;22603;47.900;8.146;2022-07-17T05:42:38;12.20;99.90
36594;DHT22;22603;47.900;8.146;2022-07-17T05:45:25;12.40;99.90
36594;DHT22;22603;47.900;8.146;2022-07-17T05:48:12;12.50;99.90
36594;DHT22;22603;47.900;8.146;2022-07-17T05:51:00;12.70;99.90
36594;DHT22;22603;47.900;8.146;2022-07-17T05:53:56;12.80;99.90
36594;DHT22;22603;47.900;8.146;2022-07-17T05:56:43;12.90;99.90
36594;DHT22;22603;47.900;8.146;2022-07-17T05:59:30;13.00;99.90
36594;DHT22;22603;47.900;8.146;2022-07-17T06:02:17;13.20;99.90
36594;DHT22;22603;47.900;8.146;2022-07-17T06:05:05;13.50;99.90
36594;DHT22;22603;47.900;8.146;2022-07-17T06:07:54;13.60;99.90
36594;DHT22;22603;47.900;8.146;2022-07-17T06:10:41;13.70;99.90
36594;DHT22;22603;47.900;8.146;2022-07-17T06:13:29;13.80;99.90
36594;DHT22;22603;47.900;8.146;2022-07-17T06:16:16;13.90;99.90
36594;DHT22;22603;47.900;8.146;2022-07-17T06:19:03;14.00;99.90
36594;DHT22;22603;47.900;8.146;2022-07-17T06:21:50;14.20;99.90
36594;DHT22;22603;47.900;8.146;2022-07-17T06:24:38;14.40;99.90
36594;DHT22;22603;47.900;8.146;2022-07-17T06:27:25;14.50;99.90
36594;DHT22;22603;47.900;8.146;2022-07-17T06:30:14;14.70;99.90
36594;DHT22;22603;47.900;8.146;2022-07-17T06:33:01;15.10;99.90
36594;DHT22;22603;47.900;8.146;2022-07-17T06:35:48;16.10;99.90
36594;DHT22;22603;47.900;8.146;2022-07-17T06:38:35;17.20;99.90
36594;DHT22;22603;47.900;8.146;2022-07-17T06:41:24;18.00;99.90
36594;DHT22;22603;47.900;8.146;2022-07-17T06:44:12;19.20;99.90
36594;DHT22;22603;47.900;8.146;2022-07-17T06:47:02;20.40;99.90
36594;DHT22;22603;47.900;8.146;2022-07-17T06:49:49;20.70;99.90
36594;DHT22;22603;47.900;8.146;2022-07-17T06:52:36;20.90;99.90
36594;DHT22;22603;47.900;8.146;2022-07-17T06:55:31;21.30;99.90
36594;DHT22;22603;47.900;8.146;2022-07-17T06:58:19;20.90;99.90
36594;DHT22;22603;47.900;8.146;2022-07-17T07:01:07;20.70;99.90
36594;DHT22;22603;47.900;8.146;2022-07-17T07:03:54;21.30;99.90
36594;DHT22;22603;47.900;8.146;2022-07-17T07:06:41;21.60;99.90
36594;DHT22;22603;47.900;8.146;2022-07-17T07:09:29;22.10;99.90
36594;DHT22;22603;47.900;8.146;2022-07-17T07:12:15;22.20;99.90
36594;DHT22;22603;47.900;8.146;2022-07-17T07:15:05;23.00;99.90
36594;DHT22;22603;47.900;8.146;2022-07-17T07:17:57;24.10;99.90
36594;DHT22;22603;47.900;8.146;2022-07-17T07:20:45;24.40;99.90
36594;DHT22;22603;47.900;8.146;2022-07-17T07:23:32;24.70;99.90
36594;DHT22;22603;47.900;8.146;2022-07-17T07:26:20;25.30;99.90
36594;DHT22;22603;47.900;8.146;2022-07-17T07:29:06;25.50;99.90
36594;DHT22;22603;47.900;8.146;2022-07-17T07:32:03;26.30;99.90
36594;DHT22;22603;47.900;8.146;2022-07-17T07:34:50;24.20;99.90
36594;DHT22;22603;47.900;8.146;2022-07-17T07:37:38;24.30;99.90
36594;DHT22;22603;47.900;8.146;2022-07-17T07:40:25;25.20;99.90
36594;DHT22;22603;47.900;8.146;2022-07-17T07:43:12;24.40;99.90
36594;DHT22;22603;47.900;8.146;2022-07-17T07:45:59;24.10;99.90
36594;DHT22;22603;47.900;8.146;2022-07-17T07:48:49;25.10;99.90
36594;DHT22;22603;47.900;8.146;2022-07-17T07:51:37;26.70;99.90
36594;DHT22;22603;47.900;8.146;2022-07-17T07:54:44;26.80;99.90
36594;DHT22;22603;47.900;8.146;2022-07-17T07:57:31;26.80;99.90
36594;DHT22;22603;47.900;8.146;2022-07-17T08:00:18;26.70;99.90
36594;DHT22;22603;47.900;8.146;2022-07-17T08:03:05;27.60;99.90
36594;DHT22;22603;47.900;8.146;2022-07-17T08:05:54;27.90;99.90
36594;DHT22;22603;47.900;8.146;2022-07-17T08:08:41;28.10;99.90
36594;DHT22;22603;47.900;8.146;2022-07-17T08:11:29;28.10;99.90
36594;DHT22;22603;47.900;8.146;2022-07-17T08:14:17;28.80;99.90
36594;DHT22;22603;47.900;8.146;2022-07-17T08:17:04;29.10;99.90
36594;DHT22;22603;47.900;8.146;2022-07-17T08:19:51;29.00;99.90
36594;DHT22;22603;47.900;8.146;2022-07-17T08:22:39;28.80;99.90
36594;DHT22;22603;47.900;8.146;2022-07-17T08:25:49;28.90;99.90
36594;DHT22;22603;47.900;8.146;2022-07-17T08:28:36;28.70;99.90
36594;DHT22;22603;47.900;8.146;2022-07-17T08:34:08;29.00;99.90
36594;DHT22;22603;47.900;8.146;2022-07-17T08:36:55;28.90;99.90
36594;DHT22;22603;47.900;8.146;2022-07-17T08:39:48;29.00;99.90
36594;DHT22;22603;47.900;8.146;2022-07-17T08:42:35;29.00;99.90
36594;DHT22;22603;47.900;8.146;2022-07-17T08:45:28;29.00;99.90
36594;DHT22;22603;47.900;8.146;2022-07-17T08:48:16;28.90;99.90
36594;DHT22;22603;47.900;8.146;2022-07-17T08:51:06;28.40;99.90
36594;DHT22;22603;47.900;8.146;2022-07-17T08:53:56;29.60;99.90
36594;DHT22;22603;47.900;8.146;2022-07-17T08:56:43;30.10;99.90
36594;DHT22;22603;47.900;8.146;2022-07-17T08:59:31;29.90;99.90
36594;DHT22;22603;47.900;8.146;2022-07-17T09:02:18;30.20;99.90
36594;DHT22;22603;47.900;8.146;2022-07-17T09:05:07;28.90;99.90
36594;DHT22;22603;47.900;8.146;2022-07-17T09:07:56;28.60;99.90
36594;DHT22;22603;47.900;8.146;2022-07-17T09:10:45;28.00;99.90
36594;DHT22;22603;47.900;8.146;2022-07-17T09:13:34;27.70;99.90
36594;DHT22;22603;47.900;8.146;2022-07-17T09:16:21;28.20;99.90
36594;DHT22;22603;47.900;8.146;2022-07-17T09:19:08;29.10;99.90
36594;DHT22;22603;47.900;8.146;2022-07-17T09:22:14;29.10;99.90
36594;DHT22;22603;47.900;8.146;2022-07-17T09:25:03;29.30;99.90
36594;DHT22;22603;47.900;8.146;2022-07-17T09:27:50;29.90;99.90
36594;DHT22;22603;47.900;8.146;2022-07-17T09:30:39;29.80;99.90
36594;DHT22;22603;47.900;8.146;2022-07-17T09:33:28;29.40;99.90
36594;DHT22;22603;47.900;8.146;2022-07-17T09:36:15;30.50;99.90
36594;DHT22;22603;47.900;8.146;2022-07-17T09:39:02;30.80;99.90
36594;DHT22;22603;47.900;8.146;2022-07-17T09:41:53;30.80;99.90
36594;DHT22;22603;47.900;8.146;2022-07-17T09:44:40;31.20;99.90
36594;DHT22;22603;47.900;8.146;2022-07-17T09:47:28;31.40;99.90
36594;DHT22;22603;47.900;8.146;2022-07-17T09:50:16;30.80;99.90
36594;DHT22;22603;47.900;8.146;2022-07-17T09:53:05;30.80;99.90
36594;DHT22;22603;47.900;8.146;2022-07-17T09:55:56;30.70;99.90
36594;DHT22;22603;47.900;8.146;2022-07-17T09:58:48;31.30;99.90
36594;DHT22;22603;47.900;8.146;2022-07-17T10:01:37;31.10;99.90
36594;DHT22;22603;47.900;8.146;2022-07-17T10:04:27;30.20;99.90
36594;DHT22;22603;47.900;8.146;2022-07-17T10:07:15;30.60;99.90
36594;DHT22;22603;47.900;8.146;2022-07-17T10:10:02;29.60;99.90
36594;DHT22;22603;47.900;8.146;2022-07-17T10:12:50;29.10;99.90
36594;DHT22;22603;47.900;8.146;2022-07-17T10:15:39;29.70;99.90
36594;DHT22;22603;47.900;8.146;2022-07-17T10:18:35;30.40;99.90
36594;DHT22;22603;47.900;8.146;2022-07-17T10:21:23;30.90;99.90
36594;DHT22;22603;47.900;8.146;2022-07-17T10:24:10;30.80;99.90
36594;DHT22;22603;47.900;8.146;2022-07-17T10:26:58;30.50;99.90
36594;DHT22;22603;47.900;8.146;2022-07-17T10:29:47;31.60;99.90
36594;DHT22;22603;47.900;8.146;2022-07-17T10:32:36;31.90;99.90
36594;DHT22;22603;47.900;8.146;2022-07-17T10:35:25;32.20;99.90
36594;DHT22;22603;47.900;8.146;2022-07-17T10:38:14;32.60;98.50
36594;DHT22;22603;47.900;8.146;2022-07-17T10:41:02;32.40;98.80
36594;DHT22;22603;47.900;8.146;2022-07-17T10:43:50;32.50;98.70
36594;DHT22;22603;47.900;8.146;2022-07-17T10:46:38;33.70;98.80
36594;DHT22;22603;47.900;8.146;2022-07-17T10:49:27;34.90;98.20
36594;DHT22;22603;47.900;8.146;2022-07-17T10:52:14;34.00;97.60
36594;DHT22;22603;47.900;8.146;2022-07-17T10:55:03;34.90;99.10
36594;DHT22;22603;47.900;8.146;2022-07-17T10:57:51;34.90;98.00
36594;DHT22;22603;47.900;8.146;2022-07-17T11:00:38;34.20;97.50
36594;DHT22;22603;47.900;8.146;2022-07-17T11:03:26;34.00;97.00
36594;DHT22;22603;47.900;8.146;2022-07-17T11:06:16;34.00;97.20
36594;DHT22;22603;47.900;8.146;2022-07-17T11:09:07;33.20;95.90
36594;DHT22;22603;47.900;8.146;2022-07-17T11:11:55;32.20;96.40
36594;DHT22;22603;47.900;8.146;2022-07-17T11:14:42;32.30;96.80
36594;DHT22;22603;47.900;8.146;2022-07-17T11:17:29;33.30;97.90
36594;DHT22;22603;47.900;8.146;2022-07-17T11:20:16;33.50;97.50
36594;DHT22;22603;47.900;8.146;2022-07-17T11:23:05;32.60;97.20
36594;DHT22;22603;47.900;8.146;2022-07-17T11:25:54;33.50;97.30
36594;DHT22;22603;47.900;8.146;2022-07-17T11:28:44;34.00;97.50
36594;DHT22;22603;47.900;8.146;2022-07-17T11:31:31;33.60;96.50
36594;DHT22;22603;47.900;8.146;2022-07-17T11:34:18;33.70;98.90
36594;DHT22;22603;47.900;8.146;2022-07-17T11:37:06;33.80;96.00
36594;DHT22;22603;47.900;8.146;2022-07-17T11:39:56;34.80;97.50
36594;DHT22;22603;47.900;8.146;2022-07-17T11:42:44;34.90;97.20
36594;DHT22;22603;47.900;8.146;2022-07-17T11:45:31;35.20;96.80
36594;DHT22;22603;47.900;8.146;2022-07-17T11:48:22;35.50;96.30
36594;DHT22;22603;47.900;8.146;2022-07-17T11:51:09;35.70;94.80
36594;DHT22;22603;47.900;8.146;2022-07-17T11:54:03;35.60;96.10
36594;DHT22;22603;47.900;8.146;2022-07-17T11:56:56;35.80;95.20
36594;DHT22;22603;47.900;8.146;2022-07-17T11:59:45;35.80;95.50
36594;DHT22;22603;47.900;8.146;2022-07-17T12:02:33;35.60;96.70
36594;DHT22;22603;47.900;8.146;2022-07-17T12:05:25;35.00;94.60
36594;DHT22;22603;47.900;8.146;2022-07-17T12:08:18;35.00;95.40
36594;DHT22;22603;47.900;8.146;2022-07-17T12:11:07;34.80;96.40
36594;DHT22;22603;47.900;8.146;2022-07-17T12:14:04;35.40;95.40
36594;DHT22;22603;47.900;8.146;2022-07-17T12:16:52;35.00;95.10
36594;DHT22;22603;47.900;8.146;2022-07-17T12:19:46;33.80;95.20
36594;DHT22;22603;47.900;8.146;2022-07-17T12:22:43;34.10;96.30
36594;DHT22;22603;47.900;8.146;2022-07-17T12:25:31;34.50;95.90
36594;DHT22;22603;47.900;8.146;2022-07-17T12:28:19;34.80;95.60
36594;DHT22;22603;47.900;8.146;2022-07-17T12:31:07;34.70;95.60
36594;DHT22;22603;47.900;8.146;2022-07-17T12:33:56;33.60;95.20
36594;DHT22;22603;47.900;8.146;2022-07-17T12:36:43;33.70;97.60
36594;DHT22;22603;47.900;8.146;2022-07-17T12:39:31;33.20;95.30
36594;DHT22;22603;47.900;8.146;2022-07-17T12:42:18;32.80;96.10
36594;DHT22;22603;47.900;8.146;2022-07-17T12:45:06;32.40;95.90
36594;DHT22;22603;47.900;8.146;2022-07-17T12:47:55;32.60;97.00
36594;DHT22;22603;47.900;8.146;2022-07-17T12:50:42;33.20;96.40
36594;DHT22;22603;47.900;8.146;2022-07-17T12:53:29;33.50;95.70
36594;DHT22;22603;47.900;8.146;2022-07-17T12:56:17;33.80;96.80
36594;DHT22;22603;47.900;8.146;2022-07-17T12:59:04;32.30;96.90
36594;DHT22;22603;47.900;8.146;2022-07-17T13:01:51;31.50;96.10
36594;DHT22;22603;47.900;8.146;2022-07-17T13:04:41;30.50;98.40
36594;DHT22;22603;47.900;8.146;2022-07-17T13:07:29;30.10;98.10
36594;DHT22;22603;47.900;8.146;2022-07-17T13:10:16;30.10;97.90
36594;DHT22;22603;47.900;8.146;2022-07-17T13:13:03;30.40;96.70
36594;DHT22;22603;47.900;8.146;2022-07-17T13:15:50;30.30;96.80
36594;DHT22;22603;47.900;8.146;2022-07-17T13:18:38;30.10;98.80
36594;DHT22;22603;47.900;8.146;2022-07-17T13:21:26;30.20;97.60
36594;DHT22;22603;47.900;8.146;2022-07-17T13:24:13;30.50;97.10
36594;DHT22;22603;47.900;8.146;2022-07-17T13:27:00;30.90;96.90
36594;DHT22;22603;47.900;8.146;2022-07-17T13:29:48;30.80;96.30
36594;DHT22;22603;47.900;8.146;2022-07-17T13:32:34;30.80;97.00
36594;DHT22;22603;47.900;8.146;2022-07-17T13:35:23;31.40;98.70
36594;DHT22;22603;47.900;8.146;2022-07-17T13:38:11;31.90;98.00
36594;DHT22;22603;47.900;8.146;2022-07-17T13:41:03;31.70;98.00
36594;DHT22;22603;47.900;8.146;2022-07-17T13:43:50;32.60;97.60
36594;DHT22;22603;47.900;8.146;2022-07-17T13:46:37;33.10;97.10
36594;DHT22;22603;47.900;8.146;2022-07-17T13:49:24;33.20;96.80
36594;DHT22;22603;47.900;8.146;2022-07-17T13:52:11;32.80;94.90
36594;DHT22;22603;47.900;8.146;2022-07-17T13:55:00;32.20;95.70
36594;DHT22;22603;47.900;8.146;2022-07-17T13:58:07;31.80;96.00
36594;DHT22;22603;47.900;8.146;2022-07-17T14:00:54;32.20;95.80
36594;DHT22;22603;47.900;8.146;2022-07-17T14:03:41;32.80;96.80
36594;DHT22;22603;47.900;8.146;2022-07-17T14:06:29;32.70;95.00
36594;DHT22;22603;47.900;8.146;2022-07-17T14:09:16;31.90;96.40
36594;DHT22;22603;47.900;8.146;2022-07-17T14:12:05;31.30;96.60
36594;DHT22;22603;47.900;8.146;2022-07-17T14:14:52;31.50;96.60
36594;DHT22;22603;47.900;8.146;2022-07-17T14:17:40;30.70;96.20
36594;DHT22;22603;47.900;8.146;2022-07-17T14:20:28;31.70;97.30
36594;DHT22;22603;47.900;8.146;2022-07-17T14:23:15;32.20;96.30
36594;DHT22;22603;47.900;8.146;2022-07-17T14:26:03;32.20;97.40
36594;DHT22;22603;47.900;8.146;2022-07-17T14:28:51;32.00;95.60
36594;DHT22;22603;47.900;8.146;2022-07-17T14:31:38;32.00;97.00
36594;DHT22;22603;47.900;8.146;2022-07-17T14:34:29;32.00;96.70
36594;DHT22;22603;47.900;8.146;2022-07-17T14:37:16;31.70;95.50
36594;DHT22;22603;47.900;8.146;2022-07-17T14:40:04;31.60;96.40
36594;DHT22;22603;47.900;8.146;2022-07-17T14:42:51;31.70;97.70
36594;DHT22;22603;47.900;8.146;2022-07-17T14:45:40;32.10;96.10
36594;DHT22;22603;47.900;8.146;2022-07-17T14:48:27;32.00;97.00
36594;DHT22;22603;47.900;8.146;2022-07-17T14:51:14;32.70;97.60
36594;DHT22;22603;47.900;8.146;2022-07-17T14:54:01;32.20;98.60
36594;DHT22;22603;47.900;8.146;2022-07-17T14:56:48;31.60;99.90
36594;DHT22;22603;47.900;8.146;2022-07-17T14:59:38;32.10;99.30
36594;DHT22;22603;47.900;8.146;2022-07-17T15:02:27;31.70;99.40
36594;DHT22;22603;47.900;8.146;2022-07-17T15:05:14;31.90;99.90
36594;DHT22;22603;47.900;8.146;2022-07-17T15:08:01;32.20;99.20
36594;DHT22;22603;47.900;8.146;2022-07-17T15:10:48;32.20;99.90
36594;DHT22;22603;47.900;8.146;2022-07-17T15:13:35;32.30;99.50
36594;DHT22;22603;47.900;8.146;2022-07-17T15:16:22;32.10;99.90
36594;DHT22;22603;47.900;8.146;2022-07-17T15:19:11;31.70;99.60
36594;DHT22;22603;47.900;8.146;2022-07-17T15:21:58;31.70;99.90
36594;DHT22;22603;47.900;8.146;2022-07-17T15:24:45;32.00;99.90
36594;DHT22;22603;47.900;8.146;2022-07-17T15:27:32;32.00;99.90
36594;DHT22;22603;47.900;8.146;2022-07-17T15:30:20;31.90;99.90
36594;DHT22;22603;47.900;8.146;2022-07-17T15:33:07;31.90;99.90
36594;DHT22;22603;47.900;8.146;2022-07-17T15:35:58;31.80;99.90
36594;DHT22;22603;47.900;8.146;2022-07-17T15:38:46;32.00;99.90
36594;DHT22;22603;47.900;8.146;2022-07-17T15:41:36;31.70;99.90
36594;DHT22;22603;47.900;8.146;2022-07-17T15:44:23;31.70;99.90
36594;DHT22;22603;47.900;8.146;2022-07-17T15:47:14;31.80;99.90
36594;DHT22;22603;47.900;8.146;2022-07-17T15:50:01;32.00;99.90
36594;DHT22;22603;47.900;8.146;2022-07-17T15:52:50;32.20;99.90
36594;DHT22;22603;47.900;8.146;2022-07-17T15:55:37;32.10;99.90
36594;DHT22;22603;47.900;8.146;2022-07-17T15:58:24;31.90;99.90
36594;DHT22;22603;47.900;8.146;2022-07-17T16:01:12;31.90;99.90
36594;DHT22;22603;47.900;8.146;2022-07-17T16:03:59;31.80;99.90
36594;DHT22;22603;47.900;8.146;2022-07-17T16:06:47;31.70;99.90
36594;DHT22;22603;47.900;8.146;2022-07-17T16:09:35;31.60;99.90
36594;DHT22;22603;47.900;8.146;2022-07-17T16:12:26;31.60;99.90
36594;DHT22;22603;47.900;8.146;2022-07-17T16:15:16;31.50;99.90
36594;DHT22;22603;47.900;8.146;2022-07-17T16:18:03;31.40;99.90
36594;DHT22;22603;47.900;8.146;2022-07-17T16:20:50;31.40;99.90
36594;DHT22;22603;47.900;8.146;2022-07-17T16:23:38;31.20;99.90
36594;DHT22;22603;47.900;8.146;2022-07-17T16:26:27;31.20;99.90
36594;DHT22;22603;47.900;8.146;2022-07-17T16:29:15;31.10;99.90
36594;DHT22;22603;47.900;8.146;2022-07-17T16:32:02;31.20;99.90
36594;DHT22;22603;47.900;8.146;2022-07-17T16:34:50;31.20;99.90
36594;DHT22;22603;47.900;8.146;2022-07-17T16:37:37;30.60;99.90
36594;DHT22;22603;47.900;8.146;2022-07-17T16:40:24;30.60;99.90
36594;DHT22;22603;47.900;8.146;2022-07-17T16:43:13;30.60;99.90
36594;DHT22;22603;47.900;8.146;2022-07-17T16:46:00;30.80;99.90
36594;DHT22;22603;47.900;8.146;2022-07-17T16:48:48;30.90;99.90
36594;DHT22;22603;47.900;8.146;2022-07-17T16:51:35;30.80;99.90
36594;DHT22;22603;47.900;8.146;2022-07-17T16:54:22;30.60;99.90
36594;DHT22;22603;47.900;8.146;2022-07-17T16:57:09;30.60;99.90
36594;DHT22;22603;47.900;8.146;2022-07-17T16:59:58;30.40;99.90
36594;DHT22;22603;47.900;8.146;2022-07-17T17:02:45;30.30;99.90
36594;DHT22;22603;47.900;8.146;2022-07-17T17:05:33;30.00;99.90
36594;DHT22;22603;47.900;8.146;2022-07-17T17:08:21;30.00;99.90
36594;DHT22;22603;47.900;8.146;2022-07-17T17:11:09;29.90;99.90
36594;DHT22;22603;47.900;8.146;2022-07-17T17:13:56;29.90;99.90
36594;DHT22;22603;47.900;8.146;2022-07-17T17:16:45;29.90;99.90
36594;DHT22;22603;47.900;8.146;2022-07-17T17:19:33;29.80;99.90
36594;DHT22;22603;47.900;8.146;2022-07-17T17:22:25;29.70;99.90
36594;DHT22;22603;47.900;8.146;2022-07-17T17:25:12;29.60;99.90
36594;DHT22;22603;47.900;8.146;2022-07-17T17:27:59;29.10;99.90
36594;DHT22;22603;47.900;8.146;2022-07-17T17:30:47;29.10;99.90
36594;DHT22;22603;47.900;8.146;2022-07-17T17:33:36;29.00;99.90
36594;DHT22;22603;47.900;8.146;2022-07-17T17:36:23;28.70;99.90
36594;DHT22;22603;47.900;8.146;2022-07-17T17:39:19;28.60;99.90
36594;DHT22;22603;47.900;8.146;2022-07-17T17:42:06;28.30;99.90
36594;DHT22;22603;47.900;8.146;2022-07-17T17:44:53;28.20;99.90
36594;DHT22;22603;47.900;8.146;2022-07-17T17:47:42;28.10;99.90